sensor_id;sensor_type;location;lat;lon;timestamp;P1;durP1;ratioP1;P2;durP2;ratioP2
37859;SDS011;23698;52.014;5.190;2023-06-10T05:02:37;10.73;;;5.75;;
37859;SDS011;23698;52.014;5.190;2023-06-10T05:05:23;15.02;;;6.15;;
37859;SDS011;23698;52.014;5.190;2023-06-10T05:08:10;12.95;;;6.50;;
37859;SDS011;23698;52.014;5.190;2023-06-10T05:10:57;9.75;;;5.68;;
37859;SDS011;23698;52.014;5.190;2023-06-10T05:13:44;11.20;;;5.72;;
37859;SDS011;23698;52.014;5.190;2023-06-10T07:57:10;12.02;;;5.93;;
37859;SDS011;23698;52.014;5.190;2023-06-10T07:59:57;8.00;;;5.85;;
37859;SDS011;23698;52.014;5.190;2023-06-10T08:02:49;11.40;;;5.57;;
37859;SDS011;23698;52.014;5.190;2023-06-10T08:05:39;7.47;;;5.60;;
37859;SDS011;23698;52.014;5.190;2023-06-10T08:08:34;7.47;;;5.18;;
37859;SDS011;23698;52.014;5.190;2023-06-10T08:11:26;12.57;;;5.88;;
37859;SDS011;23698;52.014;5.190;2023-06-10T08:17:07;9.68;;;5.85;;
37859;SDS011;23698;52.014;5.190;2023-06-10T08:19:54;8.73;;;5.30;;
37859;SDS011;23698;52.014;5.190;2023-06-10T08:22:58;9.43;;;5.97;;
37859;SDS011;23698;52.014;5.190;2023-06-10T08:26:21;11.07;;;5.80;;
37859;SDS011;23698;52.014;5.190;2023-06-10T08:29:22;11.68;;;5.93;;
37859;SDS011;23698;52.014;5.190;2023-06-10T08:32:09;10.63;;;5.63;;
37859;SDS011;23698;52.014;5.190;2023-06-10T08:48:46;9.00;;;6.03;;
37859;SDS011;23698;52.014;5.190;2023-06-10T08:51:39;10.10;;;5.60;;
37859;SDS011;23698;52.014;5.190;2023-06-10T08:54:31;10.30;;;5.93;;
37859;SDS011;23698;52.014;5.190;2023-06-10T08:57:23;8.88;;;5.65;;
37859;SDS011;23698;52.014;5.190;2023-06-10T09:00:13;9.73;;;5.15;;
37859;SDS011;23698;52.014;5.190;2023-06-10T09:03:00;10.63;;;5.50;;
37859;SDS011;23698;52.014;5.190;2023-06-10T09:05:51;11.15;;;6.15;;
37859;SDS011;23698;52.014;5.190;2023-06-10T09:08:37;8.55;;;5.47;;
37859;SDS011;23698;52.014;5.190;2023-06-10T09:11:25;8.10;;;5.40;;
37859;SDS011;23698;52.014;5.190;2023-06-10T09:14:15;8.85;;;5.40;;
37859;SDS011;23698;52.014;5.190;2023-06-10T09:17:01;8.82;;;5.97;;
37859;SDS011;23698;52.014;5.190;2023-06-10T09:19:50;8.35;;;6.13;;
37859;SDS011;23698;52.014;5.190;2023-06-10T09:22:40;10.10;;;6.53;;
37859;SDS011;23698;52.014;5.190;2023-06-10T09:25:34;7.90;;;5.50;;
37859;SDS011;23698;52.014;5.190;2023-06-10T09:28:22;10.43;;;4.82;;
37859;SDS011;23698;52.014;5.190;2023-06-10T09:31:08;13.68;;;5.80;;
37859;SDS011;23698;52.014;5.190;2023-06-10T09:34:03;7.68;;;5.28;;
37859;SDS011;23698;52.014;5.190;2023-06-10T09:36:51;7.10;;;4.90;;
37859;SDS011;23698;52.014;5.190;2023-06-10T09:39:39;11.27;;;5.43;;
37859;SDS011;23698;52.014;5.190;2023-06-10T09:42:26;9.13;;;5.45;;
37859;SDS011;23698;52.014;5.190;2023-06-10T09:45:13;9.15;;;5.45;;
37859;SDS011;23698;52.014;5.190;2023-06-10T09:47:59;9.68;;;5.47;;
37859;SDS011;23698;52.014;5.190;2023-06-10T09:50:46;8.57;;;5.13;;
37859;SDS011;23698;52.014;5.190;2023-06-10T09:53:34;6.72;;;5.32;;
37859;SDS011;23698;52.014;5.190;2023-06-10T09:56:21;10.77;;;5.25;;
37859;SDS011;23698;52.014;5.190;2023-06-10T09:59:27;8.52;;;5.20;;
37859;SDS011;23698;52.014;5.190;2023-06-10T10:02:14;6.22;;;4.70;;
37859;SDS011;23698;52.014;5.190;2023-06-10T10:05:02;6.90;;;4.93;;
37859;SDS011;23698;52.014;5.190;2023-06-10T10:07:51;6.82;;;4.63;;
37859;SDS011;23698;52.014;5.190;2023-06-10T10:10:42;7.13;;;4.82;;
37859;SDS011;23698;52.014;5.190;2023-06-10T10:13:30;9.55;;;4.95;;
37859;SDS011;23698;52.014;5.190;2023-06-10T11:05:38;7.55;;;4.55;;
37859;SDS011;23698;52.014;5.190;2023-06-10T11:09:58;6.13;;;4.97;;
37859;SDS011;23698;52.014;5.190;2023-06-10T11:12:51;9.80;;;5.20;;
37859;SDS011;23698;52.014;5.190;2023-06-10T11:15:38;8.48;;;4.68;;
37859;SDS011;23698;52.014;5.190;2023-06-10T11:18:25;6.72;;;4.90;;
37859;SDS011;23698;52.014;5.190;2023-06-10T11:21:11;6.03;;;4.70;;
37859;SDS011;23698;52.014;5.190;2023-06-10T11:23:58;7.60;;;5.05;;
37859;SDS011;23698;52.014;5.190;2023-06-10T11:26:45;7.28;;;5.03;;
37859;SDS011;23698;52.014;5.190;2023-06-10T11:29:31;9.27;;;5.03;;
37859;SDS011;23698;52.014;5.190;2023-06-10T11:32:18;7.63;;;6.68;;
37859;SDS011;23698;52.014;5.190;2023-06-10T11:35:05;6.05;;;4.85;;
37859;SDS011;23698;52.014;5.190;2023-06-10T11:37:53;8.60;;;5.18;;
37859;SDS011;23698;52.014;5.190;2023-06-10T11:40:40;8.27;;;5.38;;
37859;SDS011;23698;52.014;5.190;2023-06-10T11:43:27;8.65;;;5.35;;
37859;SDS011;23698;52.014;5.190;2023-06-10T11:46:14;9.55;;;4.97;;
37859;SDS011;23698;52.014;5.190;2023-06-10T11:49:01;9.50;;;4.95;;
37859;SDS011;23698;52.014;5.190;2023-06-10T11:51:47;7.75;;;4.57;;
37859;SDS011;23698;52.014;5.190;2023-06-10T11:54:36;5.95;;;5.28;;
37859;SDS011;23698;52.014;5.190;2023-06-10T11:57:23;5.90;;;4.82;;
37859;SDS011;23698;52.014;5.190;2023-06-10T12:00:11;12.52;;;4.88;;
37859;SDS011;23698;52.014;5.190;2023-06-10T12:02:58;8.05;;;5.13;;
37859;SDS011;23698;52.014;5.190;2023-06-10T12:05:57;7.25;;;4.88;;
37859;SDS011;23698;52.014;5.190;2023-06-10T12:08:43;8.43;;;4.78;;
37859;SDS011;23698;52.014;5.190;2023-06-10T12:11:29;7.95;;;5.00;;
37859;SDS011;23698;52.014;5.190;2023-06-10T12:14:16;8.85;;;5.00;;
37859;SDS011;23698;52.014;5.190;2023-06-10T12:17:05;8.15;;;4.80;;
37859;SDS011;23698;52.014;5.190;2023-06-10T12:19:51;9.70;;;4.63;;
37859;SDS011;23698;52.014;5.190;2023-06-10T12:22:38;8.10;;;4.90;;
37859;SDS011;23698;52.014;5.190;2023-06-10T12:25:25;6.00;;;4.65;;
37859;SDS011;23698;52.014;5.190;2023-06-10T12:28:11;6.40;;;4.70;;
37859;SDS011;23698;52.014;5.190;2023-06-10T12:31:07;6.47;;;4.80;;
37859;SDS011;23698;52.014;5.190;2023-06-10T12:34:08;6.75;;;4.38;;
37859;SDS011;23698;52.014;5.190;2023-06-10T12:36:54;7.40;;;4.75;;
37859;SDS011;23698;52.014;5.190;2023-06-10T12:39:40;4.53;;;4.10;;
37859;SDS011;23698;52.014;5.190;2023-06-10T12:42:26;6.85;;;4.88;;
37859;SDS011;23698;52.014;5.190;2023-06-10T12:45:13;7.03;;;4.28;;
37859;SDS011;23698;52.014;5.190;2023-06-10T12:48:05;7.68;;;4.72;;
37859;SDS011;23698;52.014;5.190;2023-06-10T12:50:56;6.75;;;4.93;;
37859;SDS011;23698;52.014;5.190;2023-06-10T12:53:42;6.20;;;4.60;;
37859;SDS011;23698;52.014;5.190;2023-06-10T12:56:29;7.32;;;4.80;;
37859;SDS011;23698;52.014;5.190;2023-06-10T12:59:15;6.82;;;4.82;;
37859;SDS011;23698;52.014;5.190;2023-06-10T13:02:01;5.97;;;4.35;;
37859;SDS011;23698;52.014;5.190;2023-06-10T13:04:48;8.23;;;4.38;;
37859;SDS011;23698;52.014;5.190;2023-06-10T13:07:35;5.95;;;4.45;;
37859;SDS011;23698;52.014;5.190;2023-06-10T13:10:21;6.32;;;4.07;;
37859;SDS011;23698;52.014;5.190;2023-06-10T13:13:10;5.82;;;4.50;;
37859;SDS011;23698;52.014;5.190;2023-06-10T13:15:56;8.90;;;5.10;;
37859;SDS011;23698;52.014;5.190;2023-06-10T13:18:42;5.40;;;4.47;;
37859;SDS011;23698;52.014;5.190;2023-06-10T13:21:30;9.05;;;4.57;;
37859;SDS011;23698;52.014;5.190;2023-06-10T13:24:18;6.65;;;4.47;;
37859;SDS011;23698;52.014;5.190;2023-06-10T13:27:05;6.72;;;4.63;;
37859;SDS011;23698;52.014;5.190;2023-06-10T13:29:52;7.78;;;4.55;;
37859;SDS011;23698;52.014;5.190;2023-06-10T13:32:38;6.32;;;4.43;;
37859;SDS011;23698;52.014;5.190;2023-06-10T13:35:25;8.93;;;4.32;;
37859;SDS011;23698;52.014;5.190;2023-06-10T13:38:11;6.85;;;4.82;;
37859;SDS011;23698;52.014;5.190;2023-06-10T13:40:59;5.97;;;4.82;;
37859;SDS011;23698;52.014;5.190;2023-06-10T13:43:48;8.40;;;4.30;;
37859;SDS011;23698;52.014;5.190;2023-06-10T13:46:34;7.72;;;5.20;;
37859;SDS011;23698;52.014;5.190;2023-06-10T13:49:20;8.23;;;4.03;;
37859;SDS011;23698;52.014;5.190;2023-06-10T13:52:07;7.60;;;4.90;;
37859;SDS011;23698;52.014;5.190;2023-06-10T13:54:53;5.97;;;4.65;;
37859;SDS011;23698;52.014;5.190;2023-06-10T13:57:41;6.93;;;4.45;;
37859;SDS011;23698;52.014;5.190;2023-06-10T14:00:27;8.00;;;4.78;;
37859;SDS011;23698;52.014;5.190;2023-06-10T14:03:14;5.55;;;4.28;;
37859;SDS011;23698;52.014;5.190;2023-06-10T14:06:00;5.10;;;4.40;;
37859;SDS011;23698;52.014;5.190;2023-06-10T14:08:47;9.15;;;4.95;;
37859;SDS011;23698;52.014;5.190;2023-06-10T14:11:33;4.88;;;4.10;;
37859;SDS011;23698;52.014;5.190;2023-06-10T14:14:21;5.53;;;4.57;;
37859;SDS011;23698;52.014;5.190;2023-06-10T14:17:07;7.15;;;4.75;;
37859;SDS011;23698;52.014;5.190;2023-06-10T14:19:53;6.30;;;4.43;;
37859;SDS011;23698;52.014;5.190;2023-06-10T14:22:39;6.65;;;4.85;;
37859;SDS011;23698;52.014;5.190;2023-06-10T14:25:25;5.97;;;4.45;;
37859;SDS011;23698;52.014;5.190;2023-06-10T14:28:12;7.95;;;5.30;;
37859;SDS011;23698;52.014;5.190;2023-06-10T14:31:00;8.57;;;5.57;;
37859;SDS011;23698;52.014;5.190;2023-06-10T14:33:47;10.03;;;5.93;;
37859;SDS011;23698;52.014;5.190;2023-06-10T14:36:33;5.68;;;4.88;;
37859;SDS011;23698;52.014;5.190;2023-06-10T14:39:19;6.32;;;5.43;;
37859;SDS011;23698;52.014;5.190;2023-06-10T14:42:06;5.95;;;4.60;;
37859;SDS011;23698;52.014;5.190;2023-06-10T14:44:53;6.75;;;5.07;;
37859;SDS011;23698;52.014;5.190;2023-06-10T14:47:40;7.20;;;4.82;;
37859;SDS011;23698;52.014;5.190;2023-06-10T14:50:26;7.05;;;4.18;;
37859;SDS011;23698;52.014;5.190;2023-06-10T14:53:12;5.65;;;4.18;;
37859;SDS011;23698;52.014;5.190;2023-06-10T14:55:59;5.75;;;4.20;;
37859;SDS011;23698;52.014;5.190;2023-06-10T14:58:45;6.57;;;4.30;;
37859;SDS011;23698;52.014;5.190;2023-06-10T16:01:43;8.85;;;6.13;;
37859;SDS011;23698;52.014;5.190;2023-06-10T16:04:29;11.07;;;7.13;;
37859;SDS011;23698;52.014;5.190;2023-06-10T16:07:16;14.20;;;9.50;;
37859;SDS011;23698;52.014;5.190;2023-06-10T16:10:02;11.60;;;7.82;;
37859;SDS011;23698;52.014;5.190;2023-06-10T16:12:50;9.60;;;6.10;;
37859;SDS011;23698;52.014;5.190;2023-06-10T17:25:04;14.95;;;9.80;;
37859;SDS011;23698;52.014;5.190;2023-06-10T17:27:52;13.13;;;9.10;;
37859;SDS011;23698;52.014;5.190;2023-06-10T17:30:39;21.98;;;14.02;;
37859;SDS011;23698;52.014;5.190;2023-06-10T17:33:27;6.63;;;5.20;;
37859;SDS011;23698;52.014;5.190;2023-06-10T17:36:13;6.07;;;4.68;;
37859;SDS011;23698;52.014;5.190;2023-06-10T17:39:00;11.43;;;5.70;;
37859;SDS011;23698;52.014;5.190;2023-06-10T17:41:49;8.80;;;4.70;;
37859;SDS011;23698;52.014;5.190;2023-06-10T17:44:40;8.65;;;5.03;;
37859;SDS011;23698;52.014;5.190;2023-06-10T17:47:27;8.57;;;5.05;;
37859;SDS011;23698;52.014;5.190;2023-06-10T17:50:13;6.55;;;5.43;;
37859;SDS011;23698;52.014;5.190;2023-06-10T17:53:03;7.28;;;5.20;;
37859;SDS011;23698;52.014;5.190;2023-06-10T17:55:49;7.60;;;4.68;;
37859;SDS011;23698;52.014;5.190;2023-06-10T17:58:37;6.53;;;5.30;;
37859;SDS011;23698;52.014;5.190;2023-06-10T18:01:27;6.68;;;5.28;;
37859;SDS011;23698;52.014;5.190;2023-06-10T18:04:13;8.27;;;4.75;;
37859;SDS011;23698;52.014;5.190;2023-06-10T18:07:00;7.07;;;4.80;;
37859;SDS011;23698;52.014;5.190;2023-06-10T18:09:46;8.05;;;5.30;;
37859;SDS011;23698;52.014;5.190;2023-06-10T18:12:33;6.63;;;4.88;;
37859;SDS011;23698;52.014;5.190;2023-06-10T18:15:26;12.90;;;5.53;;
37859;SDS011;23698;52.014;5.190;2023-06-10T18:18:14;10.27;;;5.38;;
37859;SDS011;23698;52.014;5.190;2023-06-10T18:21:01;6.85;;;5.43;;
37859;SDS011;23698;52.014;5.190;2023-06-10T18:23:50;6.95;;;4.95;;
37859;SDS011;23698;52.014;5.190;2023-06-10T18:26:36;5.78;;;4.75;;
37859;SDS011;23698;52.014;5.190;2023-06-10T18:29:22;8.13;;;4.55;;
37859;SDS011;23698;52.014;5.190;2023-06-10T18:32:12;9.00;;;5.25;;
37859;SDS011;23698;52.014;5.190;2023-06-10T18:35:02;7.93;;;4.93;;
37859;SDS011;23698;52.014;5.190;2023-06-10T18:37:48;7.78;;;4.93;;
37859;SDS011;23698;52.014;5.190;2023-06-10T18:40:34;9.25;;;4.95;;
37859;SDS011;23698;52.014;5.190;2023-06-10T18:43:21;5.97;;;5.28;;
37859;SDS011;23698;52.014;5.190;2023-06-10T18:46:07;7.40;;;5.53;;
37859;SDS011;23698;52.014;5.190;2023-06-10T18:48:55;11.63;;;5.68;;
37859;SDS011;23698;52.014;5.190;2023-06-10T18:51:42;6.05;;;5.05;;
37859;SDS011;23698;52.014;5.190;2023-06-10T18:54:28;9.80;;;5.78;;
37859;SDS011;23698;52.014;5.190;2023-06-10T18:57:15;7.47;;;5.72;;
37859;SDS011;23698;52.014;5.190;2023-06-10T19:00:02;9.07;;;5.53;;
37859;SDS011;23698;52.014;5.190;2023-06-10T19:02:58;10.60;;;6.03;;
37859;SDS011;23698;52.014;5.190;2023-06-10T19:05:46;7.25;;;5.22;;
37859;SDS011;23698;52.014;5.190;2023-06-10T19:08:33;8.43;;;5.40;;
37859;SDS011;23698;52.014;5.190;2023-06-10T19:11:19;9.23;;;5.30;;
37859;SDS011;23698;52.014;5.190;2023-06-10T19:14:06;8.57;;;5.47;;
37859;SDS011;23698;52.014;5.190;2023-06-10T19:16:53;9.43;;;6.05;;
37859;SDS011;23698;52.014;5.190;2023-06-10T19:19:39;8.45;;;5.65;;
37859;SDS011;23698;52.014;5.190;2023-06-10T19:22:27;7.40;;;5.35;;
37859;SDS011;23698;52.014;5.190;2023-06-10T19:25:13;12.60;;;5.72;;
37859;SDS011;23698;52.014;5.190;2023-06-10T19:28:00;11.35;;;5.35;;
37859;SDS011;23698;52.014;5.190;2023-06-10T19:30:46;7.93;;;4.85;;
37859;SDS011;23698;52.014;5.190;2023-06-10T19:33:32;8.10;;;5.80;;
37859;SDS011;23698;52.014;5.190;2023-06-10T19:36:19;7.30;;;4.82;;
37859;SDS011;23698;52.014;5.190;2023-06-10T19:39:08;6.35;;;5.10;;
37859;SDS011;23698;52.014;5.190;2023-06-10T19:41:55;7.35;;;4.75;;
37859;SDS011;23698;52.014;5.190;2023-06-10T19:44:42;10.35;;;4.78;;
37859;SDS011;23698;52.014;5.190;2023-06-10T19:47:28;9.30;;;5.05;;
37859;SDS011;23698;52.014;5.190;2023-06-10T19:50:15;8.57;;;5.32;;
37859;SDS011;23698;52.014;5.190;2023-06-10T19:53:01;9.10;;;5.15;;
37859;SDS011;23698;52.014;5.190;2023-06-10T19:55:50;8.98;;;4.55;;
37859;SDS011;23698;52.014;5.190;2023-06-10T19:58:39;10.75;;;5.25;;
37859;SDS011;23698;52.014;5.190;2023-06-10T20:08:05;11.80;;;4.72;;
37859;SDS011;23698;52.014;5.190;2023-06-10T20:15:38;8.15;;;4.80;;
37859;SDS011;23698;52.014;5.190;2023-06-10T20:18:36;7.35;;;4.78;;
37859;SDS011;23698;52.014;5.190;2023-06-10T20:21:47;9.07;;;5.28;;
37859;SDS011;23698;52.014;5.190;2023-06-10T20:24:57;9.60;;;5.15;;
37859;SDS011;23698;52.014;5.190;2023-06-10T20:27:43;8.98;;;6.75;;
37859;SDS011;23698;52.014;5.190;2023-06-10T20:30:34;8.95;;;5.43;;
37859;SDS011;23698;52.014;5.190;2023-06-10T20:37:29;6.72;;;4.45;;
37859;SDS011;23698;52.014;5.190;2023-06-10T20:44:24;9.18;;;5.07;;
37859;SDS011;23698;52.014;5.190;2023-06-10T20:47:53;7.05;;;4.47;;
37859;SDS011;23698;52.014;5.190;2023-06-10T20:51:00;7.93;;;4.65;;
37859;SDS011;23698;52.014;5.190;2023-06-10T20:53:48;8.05;;;4.93;;
37859;SDS011;23698;52.014;5.190;2023-06-10T20:56:35;10.82;;;4.60;;
37859;SDS011;23698;52.014;5.190;2023-06-10T20:59:24;11.73;;;4.72;;
37859;SDS011;23698;52.014;5.190;2023-06-10T21:02:21;8.95;;;5.25;;
37859;SDS011;23698;52.014;5.190;2023-06-10T21:09:14;9.30;;;5.30;;
37859;SDS011;23698;52.014;5.190;2023-06-10T21:22:33;10.10;;;4.57;;
37859;SDS011;23698;52.014;5.190;2023-06-10T21:25:40;11.73;;;5.50;;
37859;SDS011;23698;52.014;5.190;2023-06-10T21:28:26;10.77;;;5.82;;
37859;SDS011;23698;52.014;5.190;2023-06-10T21:31:13;7.68;;;5.72;;
37859;SDS011;23698;52.014;5.190;2023-06-10T21:33:59;12.65;;;5.80;;
37859;SDS011;23698;52.014;5.190;2023-06-10T21:36:45;8.98;;;5.88;;
37859;SDS011;23698;52.014;5.190;2023-06-10T21:39:32;9.10;;;5.72;;
37859;SDS011;23698;52.014;5.190;2023-06-10T21:42:19;9.90;;;5.70;;
37859;SDS011;23698;52.014;5.190;2023-06-10T21:45:06;10.32;;;6.35;;
37859;SDS011;23698;52.014;5.190;2023-06-10T21:47:53;13.38;;;6.47;;
37859;SDS011;23698;52.014;5.190;2023-06-10T21:50:39;14.63;;;7.68;;
37859;SDS011;23698;52.014;5.190;2023-06-10T21:53:25;13.45;;;6.75;;
37859;SDS011;23698;52.014;5.190;2023-06-10T21:56:11;15.52;;;9.02;;
37859;SDS011;23698;52.014;5.190;2023-06-10T21:59:00;19.50;;;11.82;;
37859;SDS011;23698;52.014;5.190;2023-06-10T22:01:46;18.02;;;9.68;;
37859;SDS011;23698;52.014;5.190;2023-06-10T22:04:32;18.98;;;9.93;;
37859;SDS011;23698;52.014;5.190;2023-06-10T22:07:18;16.02;;;10.35;;
37859;SDS011;23698;52.014;5.190;2023-06-10T22:10:05;13.02;;;7.25;;
37859;SDS011;23698;52.014;5.190;2023-06-10T22:12:52;12.57;;;7.55;;
